createdAt,value
2023-03-13T00:02:09.337Z,12.40
2023-03-13T00:04:36.885Z,12.10
2023-03-13T00:07:05.107Z,12.30
2023-03-13T00:09:32.639Z,12.30
2023-03-13T00:12:02.250Z,12.10
2023-03-13T00:14:29.865Z,12.50
2023-03-13T00:17:01.143Z,12.20
2023-03-13T00:19:29.821Z,12.10
2023-03-13T00:21:59.967Z,12.20
2023-03-13T00:24:27.328Z,12.30
2023-03-13T00:26:56.117Z,12.20
2023-03-13T00:29:24.483Z,12.20
2023-03-13T00:31:53.175Z,12.70
2023-03-13T00:34:26.521Z,12.30
2023-03-13T00:36:57.801Z,12.30
2023-03-13T00:39:25.576Z,12.50
2023-03-13T00:44:33.769Z,12.50
2023-03-13T00:47:02.511Z,12.40
2023-03-13T00:49:40.512Z,12.40
2023-03-13T00:52:16.327Z,12.70
2023-03-13T00:54:55.731Z,12.60
2023-03-13T00:57:23.363Z,12.50
2023-03-13T00:59:53.721Z,12.50
2023-03-13T01:02:25.579Z,12.50
2023-03-13T01:04:58.652Z,12.50
2023-03-13T01:07:29.992Z,12.70
2023-03-13T01:09:57.758Z,12.90
2023-03-13T01:12:31.353Z,13.10
2023-03-13T01:15:05.131Z,12.50
2023-03-13T01:17:33.816Z,12.70
2023-03-13T01:20:01.392Z,12.40
2023-03-13T01:22:29.022Z,12.60
2023-03-13T01:25:00.090Z,12.40
2023-03-13T01:27:31.839Z,12.40
2023-03-13T01:29:59.698Z,12.30
2023-03-13T01:32:27.771Z,12.40
2023-03-13T01:34:58.089Z,12.30
2023-03-13T01:37:26.381Z,12.30
2023-03-13T01:39:54.181Z,12.40
2023-03-13T01:42:21.928Z,12.30
2023-03-13T01:44:57.603Z,12.20
2023-03-13T01:47:26.703Z,12.50
2023-03-13T01:50:14.666Z,12.00
2023-03-13T01:52:57.047Z,12.20
2023-03-13T01:55:29.444Z,12.10
2023-03-13T01:57:57.380Z,12.40
2023-03-13T02:00:35.884Z,12.20
2023-03-13T02:03:12.665Z,12.20
2023-03-13T02:05:42.425Z,12.30
2023-03-13T02:08:19.178Z,12.10
2023-03-13T02:11:06.972Z,12.50
2023-03-13T02:13:34.262Z,12.20
2023-03-13T02:16:02.619Z,12.20
2023-03-13T02:18:30.631Z,12.10
2023-03-13T02:21:10.301Z,12.20
2023-03-13T02:23:59.210Z,12.30
2023-03-13T02:28:55.537Z,12.20
2023-03-13T02:31:23.496Z,12.20
2023-03-13T02:33:51.016Z,12.40
2023-03-13T02:36:20.988Z,12.00
2023-03-13T02:38:59.803Z,12.00
2023-03-13T02:41:29.083Z,12.00
2023-03-13T02:44:04.460Z,11.80
2023-03-13T02:46:32.457Z,12.00
2023-03-13T02:49:16.906Z,12.00
2023-03-13T02:51:46.278Z,11.90
2023-03-13T02:54:37.697Z,11.90
2023-03-13T02:57:09.018Z,12.20
2023-03-13T02:59:36.508Z,11.80
2023-03-13T03:02:04.870Z,11.70
2023-03-13T03:04:32.573Z,11.80
2023-03-13T03:07:00.125Z,11.60
2023-03-13T03:09:27.669Z,11.80
2023-03-13T03:11:59.058Z,11.80
2023-03-13T03:16:57.291Z,11.80
2023-03-13T03:19:26.551Z,11.90
2023-03-13T03:21:54.313Z,12.30
2023-03-13T03:24:30.587Z,11.80
2023-03-13T03:26:58.269Z,11.90
2023-03-13T03:29:29.948Z,11.80
2023-03-13T03:31:59.004Z,11.80
2023-03-13T03:34:27.834Z,12.30
2023-03-13T03:36:56.835Z,11.80
2023-03-13T03:39:24.696Z,12.00
2023-03-13T03:41:52.481Z,11.70
2023-03-13T03:44:20.206Z,13.70
2023-03-13T03:46:53.331Z,11.60
2023-03-13T03:49:22.333Z,11.80
2023-03-13T03:51:57.066Z,12.30
2023-03-13T03:54:38.668Z,11.60
2023-03-13T03:59:35.202Z,11.80
2023-03-13T04:04:44.239Z,11.70
2023-03-13T04:07:20.429Z,12.00
2023-03-13T04:09:48.249Z,11.70
2023-03-13T04:12:24.446Z,11.70
2023-03-13T04:14:54.185Z,11.70
2023-03-13T04:17:22.340Z,12.00
2023-03-13T04:19:50.487Z,12.10
2023-03-13T04:22:18.173Z,11.90
2023-03-13T04:24:50.936Z,11.90
2023-03-13T04:27:20.273Z,11.90
2023-03-13T04:29:51.598Z,13.00
2023-03-13T04:32:34.394Z,11.90
2023-03-13T04:35:32.239Z,12.10
2023-03-13T04:38:19.969Z,12.10
2023-03-13T04:40:55.665Z,12.10
2023-03-13T04:43:34.233Z,12.40
2023-03-13T04:46:15.337Z,12.10
2023-03-13T04:48:48.791Z,12.10
2023-03-13T04:51:50.342Z,12.20
2023-03-13T04:54:37.964Z,12.20
2023-03-13T04:57:27.509Z,12.20
2023-03-13T05:00:35.835Z,11.90
2023-03-13T05:03:21.725Z,12.10
2023-03-13T05:08:47.569Z,12.10
2023-03-13T05:11:40.452Z,12.10
2023-03-13T05:14:37.136Z,12.00
2023-03-13T05:17:27.809Z,12.00
2023-03-13T05:20:11.993Z,12.00
2023-03-13T05:22:49.944Z,12.10
2023-03-13T05:25:17.591Z,11.70
2023-03-13T05:28:03.994Z,12.10
2023-03-13T05:30:57.331Z,12.50
2023-03-13T05:33:43.537Z,12.10
2023-03-13T05:36:39.932Z,12.50
2023-03-13T05:39:34.748Z,12.10
2023-03-13T05:42:31.572Z,12.40
2023-03-13T05:45:33.456Z,12.30
2023-03-13T05:48:27.001Z,13.00
2023-03-13T05:51:13.584Z,12.40
2023-03-13T05:53:53.283Z,12.30
2023-03-13T05:56:50.623Z,12.40
2023-03-13T05:59:42.203Z,12.30
2023-03-13T06:04:52.915Z,12.20
2023-03-13T06:07:20.785Z,12.00
2023-03-13T06:09:48.921Z,12.00
2023-03-13T06:12:16.273Z,12.10
2023-03-13T06:17:25.597Z,11.80
2023-03-13T06:19:52.990Z,11.90
2023-03-13T06:22:20.343Z,12.70
2023-03-13T06:24:49.605Z,11.70
2023-03-13T06:27:17.461Z,11.90
2023-03-13T06:29:44.772Z,11.80
2023-03-13T06:34:39.870Z,11.90
2023-03-13T06:37:07.200Z,12.70
2023-03-13T06:39:34.510Z,12.10
2023-03-13T06:42:02.180Z,12.00
2023-03-13T06:44:29.448Z,12.30
2023-03-13T06:46:56.944Z,12.70
2023-03-13T06:49:24.228Z,12.60
2023-03-13T06:51:51.527Z,12.20
2023-03-13T06:54:18.931Z,13.00
2023-03-13T06:56:46.180Z,12.30
2023-03-13T06:59:13.496Z,12.40
2023-03-13T07:01:40.953Z,12.40
2023-03-13T07:04:17.441Z,12.30
2023-03-13T07:06:45.181Z,12.20
2023-03-13T07:09:13.065Z,12.30
2023-03-13T07:11:50.297Z,11.70
2023-03-13T07:14:26.706Z,12.50
2023-03-13T07:16:54.921Z,12.40
2023-03-13T07:19:22.749Z,12.50
2023-03-13T07:21:50.400Z,12.40
2023-03-13T07:24:37.431Z,12.40
2023-03-13T07:27:11.766Z,12.50
2023-03-13T07:29:41.833Z,12.90
2023-03-13T07:32:09.792Z,12.50
2023-03-13T07:34:37.994Z,12.60
2023-03-13T07:37:08.195Z,12.60
2023-03-13T07:39:36.816Z,12.70
2023-03-13T07:42:04.641Z,12.90
2023-03-13T07:44:32.524Z,12.60
2023-03-13T07:47:27.230Z,12.60
2023-03-13T07:49:56.428Z,12.70
2023-03-13T07:52:33.851Z,13.00
2023-03-13T07:55:12.504Z,12.70
2023-03-13T07:58:03.137Z,12.70
2023-03-13T08:00:50.685Z,12.70
2023-03-13T08:03:21.865Z,12.80
2023-03-13T08:05:59.097Z,12.40
2023-03-13T08:08:27.593Z,12.90
2023-03-13T08:11:03.994Z,12.80
2023-03-13T08:13:35.906Z,12.70
2023-03-13T08:16:19.092Z,12.40
2023-03-13T08:18:49.145Z,12.80
2023-03-13T08:21:22.107Z,12.80
2023-03-13T08:23:53.941Z,12.80
2023-03-13T08:26:23.294Z,12.70
2023-03-13T08:29:42.470Z,12.70
2023-03-13T08:37:50.791Z,13.00
2023-03-13T08:40:42.048Z,13.10
2023-03-13T08:43:09.772Z,13.00
2023-03-13T08:45:37.269Z,13.00
2023-03-13T08:48:11.455Z,12.90
2023-03-13T08:51:13.239Z,12.90
2023-03-13T08:53:50.413Z,12.90
2023-03-13T08:56:20.655Z,12.50
2023-03-13T08:58:56.596Z,13.00
2023-03-13T09:01:42.296Z,12.80
2023-03-13T09:06:39.163Z,12.80
2023-03-13T09:09:07.703Z,12.90
2023-03-13T09:11:37.119Z,13.00
2023-03-13T09:14:04.445Z,13.00
2023-03-13T09:16:33.869Z,12.90
2023-03-13T09:19:01.255Z,12.90
2023-03-13T09:21:31.593Z,13.20
2023-03-13T09:23:59.399Z,12.90
2023-03-13T09:26:27.810Z,13.40
2023-03-13T09:28:56.044Z,13.20
2023-03-13T09:31:31.839Z,13.30
2023-03-13T09:34:00.149Z,13.10
2023-03-13T09:38:58.517Z,11.60
2023-03-13T09:41:57.668Z,12.70
2023-03-13T09:44:50.425Z,13.30
2023-03-13T09:47:38.421Z,13.10
2023-03-13T09:50:14.020Z,13.40
2023-03-13T09:52:42.042Z,13.30
2023-03-13T09:55:23.448Z,12.50
2023-03-13T09:58:00.976Z,13.20
2023-03-13T10:00:47.701Z,13.20
2023-03-13T10:03:42.808Z,13.20
2023-03-13T10:06:21.097Z,13.30
2023-03-13T10:08:48.729Z,13.30
2023-03-13T10:12:08.870Z,13.20
2023-03-13T10:15:07.401Z,13.30
2023-03-13T10:17:40.831Z,13.50
2023-03-13T10:21:02.943Z,13.60
2023-03-13T10:26:37.714Z,13.40
2023-03-13T10:29:46.077Z,13.30
2023-03-13T10:32:17.161Z,13.50
2023-03-13T10:34:56.732Z,13.60
2023-03-13T10:38:03.933Z,13.70
2023-03-13T10:40:36.259Z,13.60
2023-03-13T10:43:27.708Z,13.60
2023-03-13T10:45:59.284Z,13.60
2023-03-13T10:48:36.435Z,13.60
2023-03-13T10:53:43.413Z,13.60
2023-03-13T10:56:16.168Z,13.60
2023-03-13T10:59:13.000Z,13.70
2023-03-13T11:01:48.535Z,14.00
2023-03-13T11:04:38.823Z,13.60
2023-03-13T11:07:46.365Z,13.70
2023-03-13T11:10:20.250Z,13.90
2023-03-13T11:13:04.117Z,13.90
2023-03-13T11:16:03.192Z,13.60
2023-03-13T11:18:48.551Z,13.60
2023-03-13T11:21:37.690Z,13.70
2023-03-13T11:24:44.119Z,13.50
2023-03-13T11:27:30.352Z,13.60
2023-03-13T11:30:04.335Z,13.70
2023-03-13T11:32:41.626Z,13.70
2023-03-13T11:35:29.783Z,13.80
2023-03-13T11:37:58.536Z,14.00
2023-03-13T11:40:48.077Z,14.10
2023-03-13T11:44:00.627Z,14.50
2023-03-13T11:47:09.788Z,14.30
2023-03-13T11:49:41.026Z,14.60
2023-03-13T11:52:34.373Z,14.60
2023-03-13T11:55:02.817Z,14.50
2023-03-13T11:57:39.941Z,14.50
2023-03-13T12:00:31.365Z,14.50
2023-03-13T12:03:26.384Z,14.90
2023-03-13T12:05:57.537Z,14.60
2023-03-13T12:08:34.498Z,15.00
2023-03-13T12:11:16.000Z,14.90
2023-03-13T12:13:51.957Z,15.00
2023-03-13T12:16:23.989Z,15.10
2023-03-13T12:18:54.725Z,14.80
2023-03-13T12:21:58.287Z,14.80
2023-03-13T12:24:41.104Z,14.50
2023-03-13T12:27:32.801Z,14.60
2023-03-13T12:30:06.784Z,14.60
2023-03-13T12:32:50.655Z,14.70
2023-03-13T12:35:29.581Z,14.80
2023-03-13T12:38:20.094Z,14.60
2023-03-13T12:41:15.845Z,14.50
2023-03-13T12:44:00.654Z,14.60
2023-03-13T12:46:40.999Z,14.50
2023-03-13T12:49:18.789Z,14.50
2023-03-13T12:52:07.928Z,14.30
2023-03-13T12:54:53.776Z,14.40
2023-03-13T12:57:39.725Z,14.50
2023-03-13T13:00:19.356Z,14.10
2023-03-13T13:02:47.490Z,14.10
2023-03-13T13:05:24.770Z,14.20
2023-03-13T13:07:53.663Z,14.10
2023-03-13T13:10:29.051Z,14.30
2023-03-13T13:13:31.091Z,14.40
2023-03-13T13:16:29.116Z,14.40
2023-03-13T13:19:12.594Z,14.50
2023-03-13T13:21:42.161Z,14.40
2023-03-13T13:24:53.660Z,14.80
2023-03-13T13:27:51.958Z,14.60
2023-03-13T13:30:19.512Z,14.70
2023-03-13T13:32:48.144Z,14.10
2023-03-13T13:35:26.656Z,14.60
2023-03-13T13:38:30.377Z,14.70
2023-03-13T13:41:11.420Z,14.90
2023-03-13T13:43:47.144Z,14.60
2023-03-13T13:46:35.693Z,14.60
2023-03-13T13:49:30.745Z,14.80
2023-03-13T13:52:12.442Z,14.60
2023-03-13T13:54:44.778Z,14.90
2023-03-13T13:57:32.260Z,15.00
2023-03-13T14:00:20.996Z,15.20
2023-03-13T14:02:56.902Z,15.20
2023-03-13T14:05:33.613Z,15.00
2023-03-13T14:08:14.340Z,15.20
2023-03-13T14:11:24.199Z,15.40
2023-03-13T14:14:10.525Z,15.60
2023-03-13T14:16:39.390Z,15.40
2023-03-13T14:19:28.207Z,15.40
2023-03-13T14:22:04.307Z,15.20
2023-03-13T14:24:35.493Z,15.20
2023-03-13T14:27:15.311Z,15.10
2023-03-13T14:29:59.421Z,15.00
2023-03-13T14:32:27.330Z,15.00
2023-03-13T14:34:55.124Z,15.00
2023-03-13T14:37:37.637Z,14.80
2023-03-13T14:40:25.166Z,14.70
2023-03-13T14:43:02.268Z,14.60
2023-03-13T14:45:35.609Z,14.10
2023-03-13T14:48:11.196Z,14.30
2023-03-13T14:50:39.670Z,14.30
2023-03-13T14:53:28.644Z,14.30
2023-03-13T14:56:15.107Z,14.00
2023-03-13T14:58:42.893Z,14.20
2023-03-13T15:01:48.961Z,14.00
2023-03-13T15:04:23.940Z,13.70
2023-03-13T15:07:03.274Z,13.60
2023-03-13T15:09:30.928Z,13.70
2023-03-13T15:12:16.570Z,14.10
2023-03-13T15:15:06.982Z,14.00
2023-03-13T15:17:37.714Z,13.90
2023-03-13T15:20:12.891Z,14.00
2023-03-13T15:22:43.917Z,14.00
2023-03-13T15:25:27.370Z,14.40
2023-03-13T15:30:25.628Z,15.10
2023-03-13T15:32:53.338Z,15.20
2023-03-13T15:35:25.617Z,15.10
2023-03-13T15:37:53.819Z,14.90
2023-03-13T15:40:25.695Z,15.00
2023-03-13T15:42:53.828Z,15.30
2023-03-13T15:45:26.292Z,15.70
2023-03-13T15:47:54.347Z,15.20
2023-03-13T15:52:53.123Z,15.30
2023-03-13T15:55:20.562Z,15.10
2023-03-13T15:57:50.608Z,15.10
2023-03-13T16:00:23.549Z,15.00
2023-03-13T16:02:51.147Z,15.60
2023-03-13T16:05:19.197Z,15.40
2023-03-13T16:07:50.597Z,15.70
2023-03-13T16:10:25.230Z,15.90
2023-03-13T16:12:54.299Z,15.80
2023-03-13T16:15:21.942Z,16.00
2023-03-13T16:17:49.479Z,15.60
2023-03-13T16:20:20.988Z,15.30
2023-03-13T16:22:48.428Z,15.30
2023-03-13T16:25:16.293Z,15.10
2023-03-13T16:27:44.357Z,14.80
2023-03-13T16:30:21.975Z,14.30
2023-03-13T16:32:55.213Z,14.20
2023-03-13T16:35:27.065Z,14.10
2023-03-13T16:38:00.742Z,13.90
2023-03-13T16:40:34.652Z,13.80
2023-03-13T16:43:02.455Z,13.70
2023-03-13T16:45:37.835Z,13.50
2023-03-13T16:48:05.618Z,13.60
2023-03-13T16:50:46.878Z,13.30
2023-03-13T16:53:20.829Z,13.30
2023-03-13T16:56:22.111Z,13.40
2023-03-13T16:58:51.665Z,13.40
2023-03-13T17:01:47.400Z,13.40
2023-03-13T17:04:15.951Z,13.30
2023-03-13T17:06:45.058Z,13.20
2023-03-13T17:09:19.410Z,13.20
2023-03-13T17:11:47.531Z,13.10
2023-03-13T17:14:17.962Z,13.10
2023-03-13T17:16:46.687Z,13.30
2023-03-13T17:19:26.462Z,13.00
2023-03-13T17:21:56.364Z,13.00
2023-03-13T17:24:27.209Z,13.00
2023-03-13T17:26:55.725Z,13.00
2023-03-13T17:29:24.226Z,12.90
2023-03-13T17:34:27.889Z,12.80
2023-03-13T17:36:56.315Z,12.70
2023-03-13T17:39:29.394Z,12.70
2023-03-13T17:42:08.935Z,12.70
2023-03-13T17:44:48.852Z,12.50
2023-03-13T17:47:23.663Z,12.60
2023-03-13T17:49:51.233Z,12.70
2023-03-13T17:52:18.969Z,12.40
2023-03-13T17:54:47.823Z,12.20
2023-03-13T17:57:41.863Z,12.10
2023-03-13T18:00:31.894Z,11.90
2023-03-13T18:03:01.061Z,12.30
2023-03-13T18:05:30.799Z,12.00
2023-03-13T18:08:01.095Z,11.90
2023-03-13T18:10:30.318Z,11.70
2023-03-13T18:13:00.655Z,12.00
2023-03-13T18:15:31.436Z,11.90
2023-03-13T18:17:59.431Z,11.90
2023-03-13T18:20:30.842Z,14.10
2023-03-13T18:25:40.966Z,12.10
2023-03-13T18:28:11.478Z,12.70
2023-03-13T18:30:39.710Z,11.90
2023-03-13T18:33:07.147Z,11.80
2023-03-13T18:35:34.676Z,12.00
2023-03-13T18:38:02.171Z,11.80
2023-03-13T18:40:36.645Z,11.90
2023-03-13T18:43:04.296Z,11.90
2023-03-13T18:45:32.027Z,11.90
2023-03-13T18:48:00.624Z,11.80
2023-03-13T18:50:32.608Z,11.70
2023-03-13T18:53:08.761Z,11.80
2023-03-13T18:55:36.351Z,11.70
2023-03-13T18:58:04.019Z,12.10
2023-03-13T19:00:31.935Z,11.70
2023-03-13T19:02:59.416Z,11.70
2023-03-13T19:05:27.010Z,11.70
2023-03-13T19:07:54.935Z,12.20
2023-03-13T19:10:31.365Z,11.70
2023-03-13T19:15:38.499Z,11.50
2023-03-13T19:18:07.621Z,10.30
2023-03-13T19:20:35.025Z,11.60
2023-03-13T19:23:02.548Z,11.40
2023-03-13T19:25:29.954Z,11.40
2023-03-13T19:27:57.387Z,11.20
2023-03-13T19:30:25.927Z,11.40
2023-03-13T19:35:30.371Z,11.40
2023-03-13T19:38:00.891Z,11.40
2023-03-13T19:40:33.336Z,11.40
2023-03-13T19:43:00.970Z,11.40
2023-03-13T19:45:31.010Z,11.30
2023-03-13T19:47:58.478Z,11.20
2023-03-13T19:50:29.807Z,11.50
2023-03-13T19:52:57.364Z,11.60
2023-03-13T19:55:24.954Z,11.30
2023-03-13T19:57:56.893Z,11.30
2023-03-13T20:00:28.017Z,11.50
2023-03-13T20:02:55.742Z,11.30
2023-03-13T20:05:25.013Z,11.00
2023-03-13T20:07:54.120Z,11.30
2023-03-13T20:10:22.415Z,11.20
2023-03-13T20:12:50.049Z,10.90
2023-03-13T20:15:18.043Z,11.10
2023-03-13T20:17:45.550Z,11.10
2023-03-13T20:20:13.809Z,11.50
2023-03-13T20:22:42.109Z,11.30
2023-03-13T20:25:10.599Z,11.00
2023-03-13T20:27:39.145Z,11.00
2023-03-13T20:30:07.487Z,11.40
2023-03-13T20:32:59.780Z,11.10
2023-03-13T20:35:23.451Z,11.00
2023-03-13T20:37:55.161Z,11.50
2023-03-13T20:40:24.455Z,11.00
2023-03-13T20:42:51.887Z,10.80
2023-03-13T20:45:19.368Z,10.90
2023-03-13T20:47:46.832Z,10.70
2023-03-13T20:50:14.306Z,11.00
2023-03-13T20:52:41.807Z,11.10
2023-03-13T20:55:20.227Z,10.80
2023-03-13T20:57:58.599Z,10.80
2023-03-13T21:00:34.768Z,10.70
2023-03-13T21:03:10.069Z,11.10
2023-03-13T21:05:41.843Z,11.10
2023-03-13T21:08:09.955Z,11.00
2023-03-13T21:10:38.992Z,11.00
2023-03-13T21:13:09.209Z,11.00
2023-03-13T21:15:39.656Z,11.90
2023-03-13T21:18:07.683Z,11.10
2023-03-13T21:20:37.741Z,11.10
2023-03-13T21:25:43.594Z,11.00
2023-03-13T21:28:11.053Z,10.90
2023-03-13T21:30:38.483Z,10.90
2023-03-13T21:33:05.974Z,10.90
2023-03-13T21:35:33.425Z,10.90
2023-03-13T21:38:00.838Z,10.80
2023-03-13T21:40:28.960Z,10.80
2023-03-13T21:42:56.342Z,11.00
2023-03-13T21:45:23.702Z,10.80
2023-03-13T21:47:51.298Z,12.10
2023-03-13T21:52:51.348Z,11.00
2023-03-13T21:57:46.673Z,10.70
2023-03-13T22:00:17.468Z,10.60
2023-03-13T22:02:45.195Z,10.80
2023-03-13T22:05:12.884Z,11.10
2023-03-13T22:07:40.265Z,10.80
2023-03-13T22:10:08.191Z,10.80
2023-03-13T22:12:37.323Z,10.80
2023-03-13T22:15:07.740Z,10.70
2023-03-13T22:17:35.338Z,10.80
2023-03-13T22:20:02.786Z,10.70
2023-03-13T22:22:36.364Z,10.70
2023-03-13T22:25:07.780Z,10.80
2023-03-13T22:27:35.506Z,10.70
2023-03-13T22:32:30.890Z,10.90
2023-03-13T22:34:58.561Z,10.90
2023-03-13T22:37:29.668Z,10.90
2023-03-13T22:39:57.142Z,11.00
2023-03-13T22:42:24.896Z,11.00
2023-03-13T22:44:56.020Z,10.90
2023-03-13T22:47:52.853Z,11.00
2023-03-13T22:50:37.758Z,11.00
2023-03-13T22:53:05.381Z,11.00
2023-03-13T22:55:33.604Z,11.00
2023-03-13T22:58:03.216Z,11.30
2023-03-13T23:00:34.244Z,11.10
2023-03-13T23:03:01.886Z,11.00
2023-03-13T23:05:42.132Z,11.00
2023-03-13T23:08:10.240Z,11.00
2023-03-13T23:10:37.899Z,10.80
2023-03-13T23:13:05.404Z,10.90
2023-03-13T23:15:42.999Z,10.90
2023-03-13T23:18:20.537Z,11.50
2023-03-13T23:20:48.185Z,11.10
2023-03-13T23:23:19.515Z,11.30
2023-03-13T23:25:47.169Z,11.30
2023-03-13T23:28:14.837Z,11.10
2023-03-13T23:30:42.546Z,10.90
2023-03-13T23:33:11.581Z,10.90
2023-03-13T23:35:39.559Z,10.90
2023-03-13T23:38:07.005Z,11.10
2023-03-13T23:40:34.565Z,11.00
2023-03-13T23:43:05.496Z,11.10
2023-03-13T23:45:36.509Z,11.40
2023-03-13T23:48:03.998Z,11.10
2023-03-13T23:50:31.494Z,11.20
2023-03-13T23:52:58.917Z,11.00
2023-03-13T23:55:26.398Z,11.00
2023-03-13T23:57:53.993Z,11.60
